sensor_id;sensor_type;location;lat;lon;timestamp;P1;P2;P0
67714;PMS7003;54505;44.022;20.458;2022-10-28T00:00:34;67.25;54.25;34.00
67714;PMS7003;54505;44.022;20.458;2022-10-28T00:03:19;68.25;53.50;36.25
67714;PMS7003;54505;44.022;20.458;2022-10-28T00:05:45;71.50;55.25;37.00
67714;PMS7003;54505;44.022;20.458;2022-10-28T00:08:11;64.50;52.00;34.00
67714;PMS7003;54505;44.022;20.458;2022-10-28T00:10:36;49.25;41.50;27.00
67714;PMS7003;54505;44.022;20.458;2022-10-28T00:13:02;59.75;46.75;29.75
67714;PMS7003;54505;44.022;20.458;2022-10-28T00:15:28;55.25;42.25;27.00
67714;PMS7003;54505;44.022;20.458;2022-10-28T00:17:53;57.25;42.25;28.75
67714;PMS7003;54505;44.022;20.458;2022-10-28T00:20:19;57.50;46.25;30.50
67714;PMS7003;54505;44.022;20.458;2022-10-28T00:22:45;53.25;44.00;30.75
67714;PMS7003;54505;44.022;20.458;2022-10-28T00:25:10;53.50;41.50;27.00
67714;PMS7003;54505;44.022;20.458;2022-10-28T00:27:36;58.00;45.25;29.25
67714;PMS7003;54505;44.022;20.458;2022-10-28T00:30:01;59.75;47.50;29.25
67714;PMS7003;54505;44.022;20.458;2022-10-28T00:32:28;58.25;48.00;32.00
67714;PMS7003;54505;44.022;20.458;2022-10-28T00:34:54;63.50;48.25;32.25
67714;PMS7003;54505;44.022;20.458;2022-10-28T00:37:19;56.50;46.00;31.00
67714;PMS7003;54505;44.022;20.458;2022-10-28T00:39:48;59.75;46.00;29.75
67714;PMS7003;54505;44.022;20.458;2022-10-28T00:42:17;55.50;45.00;27.75
67714;PMS7003;54505;44.022;20.458;2022-10-28T00:47:14;50.50;43.00;27.75
67714;PMS7003;54505;44.022;20.458;2022-10-28T00:49:42;56.00;42.75;29.25
67714;PMS7003;54505;44.022;20.458;2022-10-28T00:52:12;53.75;43.00;28.25
67714;PMS7003;54505;44.022;20.458;2022-10-28T00:54:40;55.75;45.25;31.00
67714;PMS7003;54505;44.022;20.458;2022-10-28T00:57:08;59.25;47.50;30.50
67714;PMS7003;54505;44.022;20.458;2022-10-28T00:59:36;45.25;38.50;27.75
67714;PMS7003;54505;44.022;20.458;2022-10-28T01:02:04;55.00;42.75;29.50
67714;PMS7003;54505;44.022;20.458;2022-10-28T01:04:30;58.50;44.00;26.75
67714;PMS7003;54505;44.022;20.458;2022-10-28T01:06:56;52.25;42.00;27.25
67714;PMS7003;54505;44.022;20.458;2022-10-28T01:09:22;41.75;38.25;25.75
67714;PMS7003;54505;44.022;20.458;2022-10-28T01:39:36;61.50;48.50;34.00
67714;PMS7003;54505;44.022;20.458;2022-10-28T01:44:51;70.50;52.25;33.50
67714;PMS7003;54505;44.022;20.458;2022-10-28T01:47:21;52.00;40.25;24.50
67714;PMS7003;54505;44.022;20.458;2022-10-28T01:52:25;63.50;47.00;30.00
67714;PMS7003;54505;44.022;20.458;2022-10-28T01:54:53;58.25;47.00;32.00
67714;PMS7003;54505;44.022;20.458;2022-10-28T01:57:21;56.75;46.25;30.25
67714;PMS7003;54505;44.022;20.458;2022-10-28T01:59:48;50.00;42.75;27.25
67714;PMS7003;54505;44.022;20.458;2022-10-28T02:02:14;57.50;40.50;26.25
67714;PMS7003;54505;44.022;20.458;2022-10-28T02:04:41;49.75;41.25;28.00
67714;PMS7003;54505;44.022;20.458;2022-10-28T02:07:07;58.00;45.50;29.25
67714;PMS7003;54505;44.022;20.458;2022-10-28T02:09:36;59.25;46.75;31.00
67714;PMS7003;54505;44.022;20.458;2022-10-28T02:12:11;52.25;41.50;29.00
67714;PMS7003;54505;44.022;20.458;2022-10-28T02:24:42;54.00;44.25;28.50
67714;PMS7003;54505;44.022;20.458;2022-10-28T02:27:16;53.00;41.25;28.00
67714;PMS7003;54505;44.022;20.458;2022-10-28T02:29:48;48.00;39.25;27.25
67714;PMS7003;54505;44.022;20.458;2022-10-28T02:32:17;46.75;39.00;27.00
67714;PMS7003;54505;44.022;20.458;2022-10-28T02:34:45;47.75;40.00;27.00
67714;PMS7003;54505;44.022;20.458;2022-10-28T02:37:17;52.50;39.50;27.25
67714;PMS7003;54505;44.022;20.458;2022-10-28T02:39:45;54.00;40.75;27.00
67714;PMS7003;54505;44.022;20.458;2022-10-28T02:42:17;52.25;40.25;27.00
67714;PMS7003;54505;44.022;20.458;2022-10-28T02:44:49;47.25;39.25;26.25
67714;PMS7003;54505;44.022;20.458;2022-10-28T02:47:19;45.50;38.00;25.50
67714;PMS7003;54505;44.022;20.458;2022-10-28T02:49:46;41.75;38.00;26.50
67714;PMS7003;54505;44.022;20.458;2022-10-28T02:52:15;49.25;40.00;28.00
67714;PMS7003;54505;44.022;20.458;2022-10-28T02:54:42;54.75;42.50;27.25
67714;PMS7003;54505;44.022;20.458;2022-10-28T02:57:14;41.25;38.25;26.50
67714;PMS7003;54505;44.022;20.458;2022-10-28T02:59:40;50.50;37.75;25.75
67714;PMS7003;54505;44.022;20.458;2022-10-28T03:02:06;51.00;39.75;27.00
67714;PMS7003;54505;44.022;20.458;2022-10-28T03:04:32;49.00;41.25;27.25
67714;PMS7003;54505;44.022;20.458;2022-10-28T03:06:58;54.50;43.00;28.25
67714;PMS7003;54505;44.022;20.458;2022-10-28T03:09:23;54.00;42.25;27.50
67714;PMS7003;54505;44.022;20.458;2022-10-28T03:11:49;24.75;14.75;2.00
67714;PMS7003;54505;44.022;20.458;2022-10-28T03:14:15;60.75;47.00;30.00
67714;PMS7003;54505;44.022;20.458;2022-10-28T03:16:40;57.00;45.75;31.00
67714;PMS7003;54505;44.022;20.458;2022-10-28T03:19:06;53.50;42.00;28.25
67714;PMS7003;54505;44.022;20.458;2022-10-28T03:21:31;50.00;39.00;26.00
67714;PMS7003;54505;44.022;20.458;2022-10-28T03:23:57;55.75;45.00;30.25
67714;PMS7003;54505;44.022;20.458;2022-10-28T03:26:23;56.50;44.75;31.00
67714;PMS7003;54505;44.022;20.458;2022-10-28T03:28:48;94.75;76.00;53.00
67714;PMS7003;54505;44.022;20.458;2022-10-28T03:31:14;61.50;49.00;32.50
67714;PMS7003;54505;44.022;20.458;2022-10-28T03:33:41;60.50;45.25;30.25
67714;PMS7003;54505;44.022;20.458;2022-10-28T03:36:07;66.25;50.00;32.75
67714;PMS7003;54505;44.022;20.458;2022-10-28T03:38:32;67.00;54.25;36.50
67714;PMS7003;54505;44.022;20.458;2022-10-28T03:40:58;68.75;54.00;35.25
67714;PMS7003;54505;44.022;20.458;2022-10-28T03:43:23;66.00;53.00;33.00
67714;PMS7003;54505;44.022;20.458;2022-10-28T03:45:49;64.50;50.50;33.75
67714;PMS7003;54505;44.022;20.458;2022-10-28T03:48:15;65.25;51.00;33.50
67714;PMS7003;54505;44.022;20.458;2022-10-28T03:50:40;59.75;50.00;33.00
67714;PMS7003;54505;44.022;20.458;2022-10-28T03:53:06;59.25;49.50;33.25
67714;PMS7003;54505;44.022;20.458;2022-10-28T03:55:32;66.50;51.50;34.00
67714;PMS7003;54505;44.022;20.458;2022-10-28T03:57:59;66.00;53.25;34.00
67714;PMS7003;54505;44.022;20.458;2022-10-28T04:00:25;64.00;49.25;34.00
67714;PMS7003;54505;44.022;20.458;2022-10-28T04:02:51;75.00;57.75;39.50
67714;PMS7003;54505;44.022;20.458;2022-10-28T04:05:17;77.25;58.25;38.50
67714;PMS7003;54505;44.022;20.458;2022-10-28T04:07:43;64.50;53.50;35.00
67714;PMS7003;54505;44.022;20.458;2022-10-28T04:10:08;66.50;51.25;34.25
67714;PMS7003;54505;44.022;20.458;2022-10-28T04:12:34;68.00;52.25;34.75
67714;PMS7003;54505;44.022;20.458;2022-10-28T04:15:00;62.00;51.75;35.00
67714;PMS7003;54505;44.022;20.458;2022-10-28T04:17:26;62.25;51.25;32.50
67714;PMS7003;54505;44.022;20.458;2022-10-28T04:19:51;61.50;49.25;33.00
67714;PMS7003;54505;44.022;20.458;2022-10-28T04:22:17;60.50;47.25;31.00
67714;PMS7003;54505;44.022;20.458;2022-10-28T04:24:42;58.75;45.75;32.00
67714;PMS7003;54505;44.022;20.458;2022-10-28T04:27:08;62.75;49.00;32.50
67714;PMS7003;54505;44.022;20.458;2022-10-28T04:29:34;68.50;55.00;35.75
67714;PMS7003;54505;44.022;20.458;2022-10-28T04:32:00;63.25;48.75;33.50
67714;PMS7003;54505;44.022;20.458;2022-10-28T04:34:26;66.25;52.00;34.00
67714;PMS7003;54505;44.022;20.458;2022-10-28T04:36:52;66.25;52.75;35.00
67714;PMS7003;54505;44.022;20.458;2022-10-28T04:39:17;63.25;50.00;36.25
67714;PMS7003;54505;44.022;20.458;2022-10-28T04:41:43;70.75;52.00;36.00
67714;PMS7003;54505;44.022;20.458;2022-10-28T04:44:08;72.25;54.25;37.00
67714;PMS7003;54505;44.022;20.458;2022-10-28T04:46:34;66.00;51.75;34.25
67714;PMS7003;54505;44.022;20.458;2022-10-28T04:48:59;76.50;59.00;38.00
67714;PMS7003;54505;44.022;20.458;2022-10-28T04:51:25;76.75;58.00;39.75
67714;PMS7003;54505;44.022;20.458;2022-10-28T04:53:51;72.25;57.00;39.25
67714;PMS7003;54505;44.022;20.458;2022-10-28T04:56:17;75.75;58.75;40.00
67714;PMS7003;54505;44.022;20.458;2022-10-28T04:58:42;67.50;52.00;35.75
67714;PMS7003;54505;44.022;20.458;2022-10-28T05:01:08;62.75;50.50;35.75
67714;PMS7003;54505;44.022;20.458;2022-10-28T05:03:34;62.00;48.00;32.75
67714;PMS7003;54505;44.022;20.458;2022-10-28T05:06:00;62.00;45.50;31.50
67714;PMS7003;54505;44.022;20.458;2022-10-28T05:08:25;66.25;47.50;30.50
67714;PMS7003;54505;44.022;20.458;2022-10-28T05:10:51;62.25;49.75;32.75
67714;PMS7003;54505;44.022;20.458;2022-10-28T05:13:17;70.00;53.25;35.00
67714;PMS7003;54505;44.022;20.458;2022-10-28T05:15:43;64.00;50.00;34.00
67714;PMS7003;54505;44.022;20.458;2022-10-28T05:18:11;75.75;57.25;36.75
67714;PMS7003;54505;44.022;20.458;2022-10-28T05:20:37;63.50;50.00;34.00
67714;PMS7003;54505;44.022;20.458;2022-10-28T05:23:02;74.75;56.00;39.00
67714;PMS7003;54505;44.022;20.458;2022-10-28T05:25:28;68.75;54.00;38.00
67714;PMS7003;54505;44.022;20.458;2022-10-28T05:27:56;68.00;53.75;37.00
67714;PMS7003;54505;44.022;20.458;2022-10-28T05:30:22;87.00;68.00;49.75
67714;PMS7003;54505;44.022;20.458;2022-10-28T05:32:48;72.50;56.50;38.75
67714;PMS7003;54505;44.022;20.458;2022-10-28T05:35:14;72.75;56.50;38.00
67714;PMS7003;54505;44.022;20.458;2022-10-28T05:37:39;66.50;53.75;36.75
67714;PMS7003;54505;44.022;20.458;2022-10-28T05:40:05;73.50;56.25;35.25
67714;PMS7003;54505;44.022;20.458;2022-10-28T05:42:31;90.25;68.25;46.75
67714;PMS7003;54505;44.022;20.458;2022-10-28T05:44:57;79.00;61.75;39.75
67714;PMS7003;54505;44.022;20.458;2022-10-28T05:47:22;75.50;58.50;38.25
67714;PMS7003;54505;44.022;20.458;2022-10-28T05:49:48;73.50;56.75;38.25
67714;PMS7003;54505;44.022;20.458;2022-10-28T05:52:14;70.50;56.25;40.00
67714;PMS7003;54505;44.022;20.458;2022-10-28T05:54:40;74.25;55.50;38.00
67714;PMS7003;54505;44.022;20.458;2022-10-28T05:57:07;71.00;57.00;38.00
67714;PMS7003;54505;44.022;20.458;2022-10-28T05:59:33;106.25;83.50;54.00
67714;PMS7003;54505;44.022;20.458;2022-10-28T06:01:58;68.50;55.50;37.75
67714;PMS7003;54505;44.022;20.458;2022-10-28T06:04:24;68.75;54.25;34.75
67714;PMS7003;54505;44.022;20.458;2022-10-28T06:06:49;73.50;54.00;35.75
67714;PMS7003;54505;44.022;20.458;2022-10-28T06:09:18;74.00;55.25;36.50
67714;PMS7003;54505;44.022;20.458;2022-10-28T06:11:44;64.25;50.25;33.50
67714;PMS7003;54505;44.022;20.458;2022-10-28T06:14:09;74.25;53.50;36.00
67714;PMS7003;54505;44.022;20.458;2022-10-28T06:16:35;68.50;54.00;34.50
67714;PMS7003;54505;44.022;20.458;2022-10-28T06:19:01;65.00;52.75;34.50
67714;PMS7003;54505;44.022;20.458;2022-10-28T06:21:26;63.50;49.50;34.50
67714;PMS7003;54505;44.022;20.458;2022-10-28T06:23:52;65.50;50.25;34.00
67714;PMS7003;54505;44.022;20.458;2022-10-28T06:26:17;74.50;57.50;38.25
67714;PMS7003;54505;44.022;20.458;2022-10-28T06:28:45;74.25;55.00;36.25
67714;PMS7003;54505;44.022;20.458;2022-10-28T06:31:10;70.75;54.25;35.00
67714;PMS7003;54505;44.022;20.458;2022-10-28T06:33:36;64.50;52.00;34.00
67714;PMS7003;54505;44.022;20.458;2022-10-28T06:36:02;68.50;53.75;36.25
67714;PMS7003;54505;44.022;20.458;2022-10-28T06:38:28;70.50;55.00;36.00
67714;PMS7003;54505;44.022;20.458;2022-10-28T06:40:56;69.75;53.00;36.75
67714;PMS7003;54505;44.022;20.458;2022-10-28T06:43:21;62.00;51.75;37.00
67714;PMS7003;54505;44.022;20.458;2022-10-28T06:45:47;72.00;54.25;36.00
67714;PMS7003;54505;44.022;20.458;2022-10-28T06:48:18;70.00;52.00;33.75
67714;PMS7003;54505;44.022;20.458;2022-10-28T06:50:43;64.25;51.25;34.25
67714;PMS7003;54505;44.022;20.458;2022-10-28T06:53:09;65.25;50.00;33.25
67714;PMS7003;54505;44.022;20.458;2022-10-28T06:55:35;62.50;49.25;33.25
67714;PMS7003;54505;44.022;20.458;2022-10-28T06:58:01;61.00;47.75;34.00
67714;PMS7003;54505;44.022;20.458;2022-10-28T07:00:30;62.50;50.25;34.00
67714;PMS7003;54505;44.022;20.458;2022-10-28T07:02:58;67.50;53.25;34.25
67714;PMS7003;54505;44.022;20.458;2022-10-28T07:05:24;63.50;49.00;32.00
67714;PMS7003;54505;44.022;20.458;2022-10-28T07:07:51;64.25;49.50;33.25
67714;PMS7003;54505;44.022;20.458;2022-10-28T07:10:18;61.75;47.75;32.50
67714;PMS7003;54505;44.022;20.458;2022-10-28T07:12:44;64.50;53.00;34.50
67714;PMS7003;54505;44.022;20.458;2022-10-28T07:15:09;59.50;47.25;31.00
67714;PMS7003;54505;44.022;20.458;2022-10-28T07:17:35;59.50;48.00;32.00
67714;PMS7003;54505;44.022;20.458;2022-10-28T07:20:01;66.00;51.75;33.75
67714;PMS7003;54505;44.022;20.458;2022-10-28T07:22:27;58.00;44.25;30.00
67714;PMS7003;54505;44.022;20.458;2022-10-28T07:24:52;63.25;47.50;33.25
67714;PMS7003;54505;44.022;20.458;2022-10-28T07:27:18;53.25;43.00;29.25
67714;PMS7003;54505;44.022;20.458;2022-10-28T07:29:44;57.50;45.00;30.00
67714;PMS7003;54505;44.022;20.458;2022-10-28T07:32:09;51.00;42.25;29.00
67714;PMS7003;54505;44.022;20.458;2022-10-28T07:34:35;56.50;47.50;31.00
67714;PMS7003;54505;44.022;20.458;2022-10-28T07:37:01;49.00;40.00;26.00
67714;PMS7003;54505;44.022;20.458;2022-10-28T07:39:26;44.25;35.75;25.00
67714;PMS7003;54505;44.022;20.458;2022-10-28T07:41:52;47.50;39.50;27.50
67714;PMS7003;54505;44.022;20.458;2022-10-28T07:44:17;48.50;38.50;27.00
67714;PMS7003;54505;44.022;20.458;2022-10-28T07:46:43;56.00;43.75;29.50
67714;PMS7003;54505;44.022;20.458;2022-10-28T07:49:09;48.75;40.25;26.75
67714;PMS7003;54505;44.022;20.458;2022-10-28T07:51:34;50.75;42.25;28.00
67714;PMS7003;54505;44.022;20.458;2022-10-28T07:54:00;53.50;43.25;29.00
67714;PMS7003;54505;44.022;20.458;2022-10-28T07:56:26;47.50;40.00;27.50
67714;PMS7003;54505;44.022;20.458;2022-10-28T07:58:52;54.50;43.50;29.00
67714;PMS7003;54505;44.022;20.458;2022-10-28T08:01:18;54.25;44.75;30.00
67714;PMS7003;54505;44.022;20.458;2022-10-28T08:03:44;59.25;47.50;31.50
67714;PMS7003;54505;44.022;20.458;2022-10-28T08:06:10;57.50;47.00;31.00
67714;PMS7003;54505;44.022;20.458;2022-10-28T08:08:37;54.00;45.00;30.00
67714;PMS7003;54505;44.022;20.458;2022-10-28T08:13:35;49.25;39.00;24.75
67714;PMS7003;54505;44.022;20.458;2022-10-28T08:16:00;53.50;42.50;28.75
67714;PMS7003;54505;44.022;20.458;2022-10-28T08:18:26;50.75;42.75;27.75
67714;PMS7003;54505;44.022;20.458;2022-10-28T08:20:51;48.00;39.00;27.25
67714;PMS7003;54505;44.022;20.458;2022-10-28T08:23:17;49.00;39.00;26.75
67714;PMS7003;54505;44.022;20.458;2022-10-28T08:25:46;49.50;41.00;28.00
67714;PMS7003;54505;44.022;20.458;2022-10-28T08:28:12;42.75;37.25;25.50
67714;PMS7003;54505;44.022;20.458;2022-10-28T08:30:38;38.25;32.50;22.75
67714;PMS7003;54505;44.022;20.458;2022-10-28T08:33:04;42.25;34.75;25.25
67714;PMS7003;54505;44.022;20.458;2022-10-28T08:35:30;43.75;35.00;24.00
67714;PMS7003;54505;44.022;20.458;2022-10-28T08:37:55;44.00;35.50;23.25
67714;PMS7003;54505;44.022;20.458;2022-10-28T08:40:23;39.25;31.50;22.00
67714;PMS7003;54505;44.022;20.458;2022-10-28T08:42:55;35.50;32.00;23.00
67714;PMS7003;54505;44.022;20.458;2022-10-28T08:45:46;34.50;30.00;21.00
67714;PMS7003;54505;44.022;20.458;2022-10-28T08:48:42;22.75;22.75;17.00
67714;PMS7003;54505;44.022;20.458;2022-10-28T08:51:15;31.75;27.50;19.25
67714;PMS7003;54505;44.022;20.458;2022-10-28T08:53:43;21.75;20.25;15.75
67714;PMS7003;54505;44.022;20.458;2022-10-28T08:56:15;22.25;21.25;15.50
67714;PMS7003;54505;44.022;20.458;2022-10-28T08:58:44;22.50;22.50;16.75
67714;PMS7003;54505;44.022;20.458;2022-10-28T09:01:18;27.50;23.25;19.00
67714;PMS7003;54505;44.022;20.458;2022-10-28T09:03:46;31.50;28.50;20.75
67714;PMS7003;54505;44.022;20.458;2022-10-28T09:06:13;26.25;23.75;17.50
67714;PMS7003;54505;44.022;20.458;2022-10-28T09:08:42;22.25;21.75;15.25
67714;PMS7003;54505;44.022;20.458;2022-10-28T09:18:57;32.25;27.75;20.00
67714;PMS7003;54505;44.022;20.458;2022-10-28T09:21:25;27.75;27.00;20.00
67714;PMS7003;54505;44.022;20.458;2022-10-28T09:23:55;25.25;24.00;15.25
67714;PMS7003;54505;44.022;20.458;2022-10-28T09:31:41;46.25;37.25;26.75
67714;PMS7003;54505;44.022;20.458;2022-10-28T09:36:47;21.75;19.00;13.50
67714;PMS7003;54505;44.022;20.458;2022-10-28T09:39:15;18.25;18.25;13.75
67714;PMS7003;54505;44.022;20.458;2022-10-28T09:41:42;16.50;16.50;14.00
67714;PMS7003;54505;44.022;20.458;2022-10-28T09:46:40;25.50;22.50;18.00
67714;PMS7003;54505;44.022;20.458;2022-10-28T09:49:14;19.50;18.00;14.00
67714;PMS7003;54505;44.022;20.458;2022-10-28T09:51:46;19.00;17.75;13.00
67714;PMS7003;54505;44.022;20.458;2022-10-28T09:54:14;32.00;30.00;22.00
67714;PMS7003;54505;44.022;20.458;2022-10-28T09:56:41;25.50;19.25;14.25
67714;PMS7003;54505;44.022;20.458;2022-10-28T09:59:06;31.25;29.75;21.00
67714;PMS7003;54505;44.022;20.458;2022-10-28T10:01:36;20.50;17.00;13.75
67714;PMS7003;54505;44.022;20.458;2022-10-28T10:04:05;16.75;16.75;13.00
67714;PMS7003;54505;44.022;20.458;2022-10-28T10:06:38;15.75;13.50;9.50
67714;PMS7003;54505;44.022;20.458;2022-10-28T10:09:09;22.00;21.00;16.00
67714;PMS7003;54505;44.022;20.458;2022-10-28T10:11:42;22.75;22.75;19.00
67714;PMS7003;54505;44.022;20.458;2022-10-28T10:14:11;17.50;15.25;12.00
67714;PMS7003;54505;44.022;20.458;2022-10-28T10:16:41;15.00;15.00;12.75
67714;PMS7003;54505;44.022;20.458;2022-10-28T10:19:09;21.25;19.25;13.75
67714;PMS7003;54505;44.022;20.458;2022-10-28T10:21:45;18.00;16.50;13.25
67714;PMS7003;54505;44.022;20.458;2022-10-28T10:26:57;12.50;12.50;9.75
67714;PMS7003;54505;44.022;20.458;2022-10-28T10:29:24;19.50;18.25;14.50
67714;PMS7003;54505;44.022;20.458;2022-10-28T10:32:06;35.25;29.00;21.25
67714;PMS7003;54505;44.022;20.458;2022-10-28T10:34:33;24.50;20.25;14.50
67714;PMS7003;54505;44.022;20.458;2022-10-28T10:36:58;14.00;14.00;10.75
67714;PMS7003;54505;44.022;20.458;2022-10-28T10:39:30;16.25;15.00;12.50
67714;PMS7003;54505;44.022;20.458;2022-10-28T10:41:58;12.75;10.75;9.00
67714;PMS7003;54505;44.022;20.458;2022-10-28T10:49:24;13.00;12.75;10.25
67714;PMS7003;54505;44.022;20.458;2022-10-28T10:52:00;12.50;11.00;8.00
67714;PMS7003;54505;44.022;20.458;2022-10-28T10:54:28;12.00;12.00;10.25
67714;PMS7003;54505;44.022;20.458;2022-10-28T10:57:05;12.75;12.75;10.50
67714;PMS7003;54505;44.022;20.458;2022-10-28T10:59:31;15.00;13.00;10.25
67714;PMS7003;54505;44.022;20.458;2022-10-28T11:01:59;13.50;12.00;10.00
67714;PMS7003;54505;44.022;20.458;2022-10-28T11:04:25;17.25;14.00;11.00
67714;PMS7003;54505;44.022;20.458;2022-10-28T11:06:52;11.50;11.50;9.00
67714;PMS7003;54505;44.022;20.458;2022-10-28T11:09:26;17.25;16.75;13.25
67714;PMS7003;54505;44.022;20.458;2022-10-28T11:11:53;13.50;12.00;9.25
67714;PMS7003;54505;44.022;20.458;2022-10-28T11:14:21;14.00;13.25;10.00
67714;PMS7003;54505;44.022;20.458;2022-10-28T11:16:49;12.75;12.50;10.00
67714;PMS7003;54505;44.022;20.458;2022-10-28T11:29:22;16.50;15.50;13.00
67714;PMS7003;54505;44.022;20.458;2022-10-28T11:39:32;9.75;9.75;8.00
67714;PMS7003;54505;44.022;20.458;2022-10-28T11:42:15;11.75;11.75;10.00
67714;PMS7003;54505;44.022;20.458;2022-10-28T11:44:52;16.00;16.00;13.00
67714;PMS7003;54505;44.022;20.458;2022-10-28T11:50:00;14.00;13.25;11.00
67714;PMS7003;54505;44.022;20.458;2022-10-28T12:00:39;33.00;29.25;21.25
67714;PMS7003;54505;44.022;20.458;2022-10-28T12:03:16;14.75;12.50;8.00
67714;PMS7003;54505;44.022;20.458;2022-10-28T12:05:48;16.00;16.00;11.25
67714;PMS7003;54505;44.022;20.458;2022-10-28T12:13:19;16.00;15.75;12.00
67714;PMS7003;54505;44.022;20.458;2022-10-28T12:15:59;13.25;12.00;9.25
67714;PMS7003;54505;44.022;20.458;2022-10-28T12:23:37;14.00;14.00;11.50
67714;PMS7003;54505;44.022;20.458;2022-10-28T12:26:04;12.50;12.00;11.00
67714;PMS7003;54505;44.022;20.458;2022-10-28T12:28:32;26.00;25.50;20.00
67714;PMS7003;54505;44.022;20.458;2022-10-28T12:31:00;27.00;24.00;18.50
67714;PMS7003;54505;44.022;20.458;2022-10-28T12:36:09;44.75;37.00;26.00
67714;PMS7003;54505;44.022;20.458;2022-10-28T12:38:48;26.25;24.00;18.25
67714;PMS7003;54505;44.022;20.458;2022-10-28T12:44:03;20.00;19.00;15.25
67714;PMS7003;54505;44.022;20.458;2022-10-28T12:49:17;23.75;22.50;16.75
67714;PMS7003;54505;44.022;20.458;2022-10-28T12:51:44;19.25;19.00;15.00
67714;PMS7003;54505;44.022;20.458;2022-10-28T12:56:41;34.75;30.00;22.00
67714;PMS7003;54505;44.022;20.458;2022-10-28T12:59:12;42.75;33.00;21.50
67714;PMS7003;54505;44.022;20.458;2022-10-28T13:01:41;34.25;29.75;20.75
67714;PMS7003;54505;44.022;20.458;2022-10-28T13:04:10;31.50;30.00;21.25
67714;PMS7003;54505;44.022;20.458;2022-10-28T13:16:51;30.00;29.25;20.25
67714;PMS7003;54505;44.022;20.458;2022-10-28T13:22:09;42.50;35.00;25.00
67714;PMS7003;54505;44.022;20.458;2022-10-28T13:27:11;34.00;30.50;20.75
67714;PMS7003;54505;44.022;20.458;2022-10-28T13:29:38;23.50;22.75;17.75
67714;PMS7003;54505;44.022;20.458;2022-10-28T13:32:05;26.00;23.25;18.00
67714;PMS7003;54505;44.022;20.458;2022-10-28T13:34:32;34.25;31.00;21.25
67714;PMS7003;54505;44.022;20.458;2022-10-28T13:36:59;33.50;31.00;22.00
67714;PMS7003;54505;44.022;20.458;2022-10-28T13:52:25;20.75;20.50;17.00
67714;PMS7003;54505;44.022;20.458;2022-10-28T13:54:55;25.75;24.50;19.00
67714;PMS7003;54505;44.022;20.458;2022-10-28T13:57:36;19.50;18.75;17.75
67714;PMS7003;54505;44.022;20.458;2022-10-28T14:05:10;25.50;22.75;15.75
67714;PMS7003;54505;44.022;20.458;2022-10-28T14:07:49;34.25;30.00;20.75
67714;PMS7003;54505;44.022;20.458;2022-10-28T14:12:46;42.25;34.50;25.75
67714;PMS7003;54505;44.022;20.458;2022-10-28T14:17:38;30.75;28.00;20.50
67714;PMS7003;54505;44.022;20.458;2022-10-28T14:20:06;32.75;30.00;22.00
67714;PMS7003;54505;44.022;20.458;2022-10-28T14:22:34;27.50;25.25;18.25
67714;PMS7003;54505;44.022;20.458;2022-10-28T14:25:00;21.25;20.50;15.25
67714;PMS7003;54505;44.022;20.458;2022-10-28T14:35:02;28.50;25.50;17.50
67714;PMS7003;54505;44.022;20.458;2022-10-28T14:37:46;51.50;42.00;31.25
67714;PMS7003;54505;44.022;20.458;2022-10-28T14:43:05;26.25;24.00;18.75
67714;PMS7003;54505;44.022;20.458;2022-10-28T14:50:48;29.00;25.50;17.50
67714;PMS7003;54505;44.022;20.458;2022-10-28T14:53:26;56.00;45.25;31.50
67714;PMS7003;54505;44.022;20.458;2022-10-28T14:55:58;19.75;18.50;13.75
67714;PMS7003;54505;44.022;20.458;2022-10-28T14:58:27;17.00;16.00;11.75
67714;PMS7003;54505;44.022;20.458;2022-10-28T15:01:12;27.75;26.25;19.75
67714;PMS7003;54505;44.022;20.458;2022-10-28T15:03:43;24.25;22.25;15.25
67714;PMS7003;54505;44.022;20.458;2022-10-28T15:06:27;20.00;17.75;13.00
67714;PMS7003;54505;44.022;20.458;2022-10-28T15:08:52;16.75;13.25;10.00
67714;PMS7003;54505;44.022;20.458;2022-10-28T15:11:19;15.25;13.75;10.25
67714;PMS7003;54505;44.022;20.458;2022-10-28T15:13:48;28.25;26.75;18.50
67714;PMS7003;54505;44.022;20.458;2022-10-28T15:16:19;33.00;28.75;19.75
67714;PMS7003;54505;44.022;20.458;2022-10-28T15:18:45;22.75;20.50;13.50
67714;PMS7003;54505;44.022;20.458;2022-10-28T15:21:12;27.25;25.25;18.75
67714;PMS7003;54505;44.022;20.458;2022-10-28T15:23:39;32.25;30.50;21.75
67714;PMS7003;54505;44.022;20.458;2022-10-28T15:26:12;33.00;30.50;22.00
67714;PMS7003;54505;44.022;20.458;2022-10-28T15:28:38;32.50;30.00;20.50
67714;PMS7003;54505;44.022;20.458;2022-10-28T15:31:04;31.50;29.25;20.75
67714;PMS7003;54505;44.022;20.458;2022-10-28T15:33:31;37.75;32.00;22.75
67714;PMS7003;54505;44.022;20.458;2022-10-28T15:36:13;40.75;32.25;22.75
67714;PMS7003;54505;44.022;20.458;2022-10-28T15:38:41;39.00;30.25;20.00
67714;PMS7003;54505;44.022;20.458;2022-10-28T15:41:33;26.75;25.00;18.00
67714;PMS7003;54505;44.022;20.458;2022-10-28T15:43:56;31.75;27.50;20.00
67714;PMS7003;54505;44.022;20.458;2022-10-28T15:46:23;46.00;38.50;26.50
67714;PMS7003;54505;44.022;20.458;2022-10-28T15:48:53;65.75;50.75;33.75
67714;PMS7003;54505;44.022;20.458;2022-10-28T15:51:19;84.50;80.25;55.00
67714;PMS7003;54505;44.022;20.458;2022-10-28T15:53:49;39.25;34.50;23.00
67714;PMS7003;54505;44.022;20.458;2022-10-28T15:58:44;36.50;33.00;23.00
67714;PMS7003;54505;44.022;20.458;2022-10-28T16:01:26;39.00;34.25;24.25
67714;PMS7003;54505;44.022;20.458;2022-10-28T16:03:52;49.00;38.50;27.00
67714;PMS7003;54505;44.022;20.458;2022-10-28T16:06:20;61.25;47.75;32.25
67714;PMS7003;54505;44.022;20.458;2022-10-28T16:08:46;57.50;42.75;28.50
67714;PMS7003;54505;44.022;20.458;2022-10-28T16:11:12;58.75;47.00;31.00
67714;PMS7003;54505;44.022;20.458;2022-10-28T16:13:44;69.75;54.00;35.25
67714;PMS7003;54505;44.022;20.458;2022-10-28T16:16:21;79.25;69.75;45.25
67714;PMS7003;54505;44.022;20.458;2022-10-28T16:18:49;134.50;111.50;63.75
67714;PMS7003;54505;44.022;20.458;2022-10-28T16:21:24;147.00;125.50;76.75
67714;PMS7003;54505;44.022;20.458;2022-10-28T16:23:54;147.50;131.75;74.75
67714;PMS7003;54505;44.022;20.458;2022-10-28T16:26:23;130.75;114.25;70.25
67714;PMS7003;54505;44.022;20.458;2022-10-28T16:28:49;133.50;114.75;70.75
67714;PMS7003;54505;44.022;20.458;2022-10-28T16:31:15;148.50;126.75;77.25
67714;PMS7003;54505;44.022;20.458;2022-10-28T16:33:41;147.50;128.00;81.25
67714;PMS7003;54505;44.022;20.458;2022-10-28T16:36:07;166.75;144.50;85.75
67714;PMS7003;54505;44.022;20.458;2022-10-28T16:38:32;190.50;163.50;99.25